Time;durP1;ratioP1;P1;durP2;ratioP2;P2;SDS_P1;SDS_P2;PMS_P1;PMS_P2;Temp;Humidity;BMP_temperature;BMP_pressure;BME280_temperature;BME280_humidity;BME280_pressure;Samples;Min_cycle;Max_cycle;Signal;HPM_P1;HPM_P2
2022/08/05 00:00:07;;;;;;;10.20;6.50;;;;;;;22.77;52.93;99835.95;104751;1274;69340;-69
2022/08/05 00:03:06;;;;;;;9.60;5.60;;;;;;;22.78;52.52;99831.63;104978;1273;73390;-73
2022/08/05 00:06:02;;;;;;;11.90;6.00;;;;;;;22.77;52.61;99833.98;105191;1273;59626;-64
2022/08/05 00:09:10;;;;;;;9.80;5.60;;;;;;;22.75;52.60;99827.89;104821;1273;59561;-66
2022/08/05 00:12:01;;;;;;;9.50;5.30;;;;;;;22.72;52.55;99826.89;104836;1273;73890;-66
2022/08/05 00:14:51;;;;;;;11.00;5.60;;;;;;;22.70;52.60;99822.66;105125;1273;68731;-67
2022/08/05 00:17:40;;;;;;;9.10;5.90;;;;;;;22.66;52.50;99819.16;104809;1273;72882;-66
2022/08/05 00:20:28;;;;;;;10.90;5.80;;;;;;;22.64;52.65;99821.52;104746;1273;59667;-67
2022/08/05 00:23:17;;;;;;;10.70;5.80;;;;;;;22.62;52.69;99820.39;104927;1273;60377;-68
2022/08/05 00:26:25;;;;;;;10.50;5.30;;;;;;;22.59;52.71;99820.09;104745;1274;72675;-67
2022/08/05 00:29:14;;;;;;;10.50;5.60;;;;;;;22.57;52.63;99815.05;105102;1273;67376;-69
2022/08/05 00:32:07;;;;;;;9.20;5.40;;;;;;;22.56;52.67;99818.84;104903;1273;73474;-68
2022/08/05 00:35:01;;;;;;;9.30;5.30;;;;;;;22.53;52.79;99812.77;104785;1273;59692;-67
2022/08/05 00:37:54;;;;;;;10.10;5.80;;;;;;;22.50;52.84;99809.38;104986;1273;60260;-68
2022/08/05 00:40:49;;;;;;;8.60;5.80;;;;;;;22.46;52.86;99805.41;105135;1273;73848;-68
2022/08/05 00:43:40;;;;;;;10.30;5.00;;;;;;;22.44;52.88;99811.79;104986;1273;66948;-68
2022/08/05 00:46:34;;;;;;;13.00;5.30;;;;;;;22.41;52.86;99813.80;104798;1274;72923;-70
2022/08/05 00:49:31;;;;;;;10.40;5.50;;;;;;;22.37;52.95;99809.02;104814;1274;59829;-69
2022/08/05 00:52:38;;;;;;;10.90;6.10;;;;;;;22.35;53.08;99808.80;104960;1273;59585;-69
2022/08/05 00:55:26;;;;;;;10.40;5.20;;;;;;;22.35;53.02;99804.71;104840;1273;74766;-69
2022/08/05 00:58:30;;;;;;;9.90;5.10;;;;;;;22.34;52.92;99807.61;105024;1273;67606;-69
2022/08/05 01:01:18;;;;;;;10.10;5.40;;;;;;;22.31;53.08;99807.54;104844;1272;72055;-71
2022/08/05 01:04:26;;;;;;;8.40;5.00;;;;;;;22.25;52.98;99805.17;105044;1273;59669;-69
2022/08/05 01:07:16;;;;;;;10.30;4.90;;;;;;;22.19;53.15;99801.27;105061;1272;59551;-71
2022/08/05 01:10:08;;;;;;;9.80;5.50;;;;;;;22.15;53.31;99804.04;105052;1273;73886;-71
2022/08/05 01:13:08;;;;;;;9.80;4.90;;;;;;;22.12;53.41;99802.38;105014;1274;67302;-72
2022/08/05 01:16:19;;;;;;;10.00;5.10;;;;;;;22.08;53.39;99802.86;104894;1273;74591;-73
2022/08/05 01:19:22;;;;;;;8.60;4.90;;;;;;;22.06;53.38;99798.63;104976;1274;60428;-73
2022/08/05 01:23:22;;;;;;;8.50;4.70;;;;;;;22.05;53.26;99795.04;105081;1273;60382;-72
2022/08/05 01:26:47;;;;;;;9.00;5.10;;;;;;;22.09;53.06;99796.52;104911;1273;74687;-71
2022/08/05 01:29:46;;;;;;;8.50;4.60;;;;;;;22.14;52.90;99793.50;104564;1281;67518;-69
2022/08/05 01:32:38;;;;;;;12.40;5.40;;;;;;;22.17;52.64;99785.46;104504;1281;72197;-70
2022/08/05 01:35:34;;;;;;;9.10;4.80;;;;;;;22.18;52.47;99784.01;104335;1281;59965;-70
2022/08/05 01:38:41;;;;;;;10.20;5.20;;;;;;;22.22;52.34;99781.06;104328;1281;60790;-67
2022/08/05 01:41:36;;;;;;;9.90;4.90;;;;;;;22.24;52.17;99779.33;104243;1281;73942;-66
2022/08/05 01:44:25;;;;;;;9.70;4.80;;;;;;;22.26;51.93;99778.12;104045;1281;69967;-70
2022/08/05 01:47:24;;;;;;;9.10;4.70;;;;;;;22.26;51.91;99779.20;104056;1281;72434;-69
2022/08/05 01:50:37;;;;;;;9.10;4.60;;;;;;;22.27;51.67;99779.96;104274;1281;60323;-72
2022/08/05 01:53:27;;;;;;;8.60;4.80;;;;;;;22.27;51.58;99780.54;104182;1281;59609;-66
2022/08/05 01:56:41;;;;;;;9.80;4.70;;;;;;;22.25;51.52;99776.86;104226;1281;73808;-67
2022/08/05 01:59:53;;;;;;;9.10;4.90;;;;;;;22.22;51.55;99778.19;104451;1281;68696;-69
2022/08/05 02:03:00;;;;;;;11.20;5.20;;;;;;;22.16;51.48;99775.67;104520;1281;74070;-71
2022/08/05 02:05:53;;;;;;;9.20;4.70;;;;;;;22.13;51.58;99781.66;104390;1274;59991;-71
2022/08/05 02:08:47;;;;;;;8.50;4.70;;;;;;;22.10;51.62;99779.34;104968;1273;62001;-68
2022/08/05 02:12:21;;;;;;;8.90;4.80;;;;;;;22.06;51.64;99779.20;104837;1273;73640;-67
2022/08/05 02:15:16;;;;;;;8.30;4.70;;;;;;;21.99;51.78;99772.25;105178;1273;68635;-69
2022/08/05 02:18:24;;;;;;;8.40;5.00;;;;;;;21.94;51.77;99771.14;104823;1274;74592;-69
2022/08/05 02:21:29;;;;;;;11.60;4.90;;;;;;;21.87;51.84;99767.45;105008;1274;59674;-69
2022/08/05 02:24:38;;;;;;;9.30;5.00;;;;;;;21.85;52.00;99771.65;104783;1273;60460;-69
2022/08/05 02:27:29;;;;;;;9.00;5.00;;;;;;;21.82;51.91;99767.08;104792;1273;74733;-69
2022/08/05 02:30:54;;;;;;;8.00;4.30;;;;;;;21.77;51.91;99769.72;104991;1273;66956;-70
2022/08/05 02:33:51;;;;;;;8.70;4.70;;;;;;;21.70;52.21;99771.32;104780;1272;74524;-68
2022/08/05 02:36:56;;;;;;;8.10;4.00;;;;;;;21.64;52.28;99774.78;104960;1274;59739;-69
2022/08/05 02:39:46;;;;;;;8.30;5.10;;;;;;;21.57;52.49;99773.14;104960;1273;60662;-68
2022/08/05 02:42:38;;;;;;;8.30;4.90;;;;;;;21.50;52.73;99776.41;104551;1274;73786;-70
2022/08/05 02:45:28;;;;;;;11.00;5.10;;;;;;;21.44;52.90;99773.16;104823;1273;68128;-69
2022/08/05 02:48:37;;;;;;;8.50;4.30;;;;;;;21.40;53.04;99769.05;104978;1273;74446;-69
2022/08/05 02:51:30;;;;;;;8.20;4.90;;;;;;;21.37;53.06;99770.48;104904;1273;59790;-67
2022/08/05 02:54:41;;;;;;;9.50;5.20;;;;;;;21.35;53.25;99766.64;104983;1273;60452;-68
2022/08/05 02:57:39;;;;;;;10.30;5.00;;;;;;;21.33;53.32;99767.33;104928;1273;73691;-67
2022/08/05 03:00:49;;;;;;;9.30;4.70;;;;;;;21.31;53.44;99765.02;104871;1273;66854;-69
2022/08/05 03:03:42;;;;;;;10.70;4.70;;;;;;;21.27;53.60;99764.50;104576;1272;73046;-66
2022/08/05 03:06:50;;;;;;;9.10;5.00;;;;;;;21.23;53.69;99769.58;104833;1273;59779;-67
2022/08/05 03:09:45;;;;;;;8.30;4.60;;;;;;;21.21;53.86;99764.41;104959;1274;62287;-69
2022/08/05 03:12:39;;;;;;;9.60;4.90;;;;;;;21.16;53.99;99760.91;104812;1274;73881;-69
2022/08/05 03:15:27;;;;;;;9.20;5.00;;;;;;;21.10;54.19;99763.81;104979;1273;69780;-72
2022/08/05 03:18:15;;;;;;;9.10;4.40;;;;;;;21.06;54.38;99764.46;104862;1273;72851;-68
2022/08/05 03:21:11;;;;;;;9.40;5.10;;;;;;;21.01;54.60;99765.54;104785;1273;59652;-69
2022/08/05 03:24:02;;;;;;;8.00;5.00;;;;;;;20.95;54.89;99764.10;104928;1274;59754;-69
2022/08/05 03:26:51;;;;;;;9.20;5.10;;;;;;;20.91;55.01;99766.77;104848;1273;76042;-66
2022/08/05 03:29:41;;;;;;;11.20;4.80;;;;;;;20.85;55.37;99764.44;104935;1273;68587;-64
2022/08/05 03:32:50;;;;;;;12.10;5.40;;;;;;;20.80;55.31;99757.35;104905;1272;71821;-69
2022/08/05 03:35:39;;;;;;;10.40;5.00;;;;;;;20.76;55.68;99755.82;104743;1274;59716;-72
2022/08/05 03:38:29;;;;;;;10.50;5.90;;;;;;;20.72;55.67;99757.03;104932;1274;59598;-69
2022/08/05 03:41:19;;;;;;;10.60;5.20;;;;;;;20.70;55.70;99760.51;104725;1274;72431;-67
2022/08/05 03:44:10;;;;;;;10.50;5.40;;;;;;;20.67;55.94;99765.61;104860;1273;69105;-68
2022/08/05 03:46:59;;;;;;;12.60;5.40;;;;;;;20.65;55.96;99769.66;105013;1273;74484;-67
2022/08/05 03:49:50;;;;;;;9.60;5.40;;;;;;;20.65;56.15;99766.95;104601;1274;59561;-71
2022/08/05 03:52:59;;;;;;;9.30;5.20;;;;;;;20.60;56.05;99761.58;104731;1273;60701;-67
2022/08/05 03:56:37;;;;;;;10.20;5.30;;;;;;;20.65;56.00;99769.42;104665;1273;73020;-71
2022/08/05 03:59:45;;;;;;;8.70;5.00;;;;;;;20.66;56.01;99772.04;104819;1271;68529;-68
2022/08/05 04:02:51;;;;;;;10.70;5.30;;;;;;;20.67;56.02;99777.09;104903;1273;73484;-69
2022/08/05 04:05:46;;;;;;;11.40;5.20;;;;;;;20.68;56.11;99777.20;104606;1274;59773;-68
2022/08/05 04:08:35;;;;;;;10.00;4.60;;;;;;;20.69;56.05;99774.52;104787;1273;61507;-68
2022/08/05 04:11:24;;;;;;;10.50;4.70;;;;;;;20.71;56.07;99768.38;104837;1274;72966;-68
2022/08/05 04:14:34;;;;;;;8.00;4.70;;;;;;;20.73;56.15;99765.77;105110;1273;68727;-68
2022/08/05 04:17:23;;;;;;;11.90;4.70;;;;;;;20.76;55.93;99764.72;104642;1273;74446;-67
2022/08/05 04:20:31;;;;;;;11.50;5.40;;;;;;;20.79;55.91;99760.77;104836;1273;60040;-69
2022/08/05 04:23:24;;;;;;;15.70;5.30;;;;;;;20.81;55.67;99760.95;104847;1273;61827;-71
2022/08/05 04:26:32;;;;;;;9.10;4.90;;;;;;;20.86;55.64;99759.52;104752;1274;73232;-70
2022/08/05 04:29:23;;;;;;;16.00;5.40;;;;;;;20.91;55.55;99762.11;105623;1273;68680;-71
2022/08/05 04:32:14;;;;;;;11.20;5.20;;;;;;;20.96;55.45;99764.13;105039;1271;74564;-71
2022/08/05 04:35:17;;;;;;;10.20;4.90;;;;;;;21.03;55.25;99767.05;104955;1273;59967;-69
2022/08/05 04:38:06;;;;;;;12.20;4.90;;;;;;;21.09;54.96;99765.07;105353;1271;59538;-70
2022/08/05 04:40:55;;;;;;;11.60;5.80;;;;;;;21.17;54.88;99764.41;105658;1272;73695;-71
2022/08/05 04:43:43;;;;;;;15.20;8.00;;;;;;;21.26;54.61;99765.16;104998;1273;68625;-73
2022/08/05 04:46:38;;;;;;;21.60;10.50;;;;;;;21.35;54.16;99756.44;104940;1274;73583;-71
2022/08/05 04:49:27;;;;;;;23.50;10.50;;;;;;;21.46;54.00;99750.23;105032;1273;59675;-71
2022/08/05 04:52:35;;;;;;;15.80;6.90;;;;;;;21.59;53.68;99751.96;104872;1273;61153;-73
2022/08/05 04:55:23;;;;;;;12.50;5.70;;;;;;;21.70;53.23;99754.70;104877;1273;74384;-73
2022/08/05 04:58:31;;;;;;;12.50;5.50;;;;;;;21.83;52.75;99758.01;105008;1274;67824;-72
2022/08/05 05:01:19;;;;;;;11.40;4.50;;;;;;;21.95;52.53;99759.20;105051;1273;71321;-72
2022/08/05 05:04:27;;;;;;;10.00;5.30;;;;;;;22.07;52.17;99755.87;105218;1273;59660;-75
2022/08/05 05:07:16;;;;;;;8.70;5.20;;;;;;;22.17;51.63;99755.98;104946;1273;60444;-74
2022/08/05 05:10:05;;;;;;;11.60;4.90;;;;;;;22.25;51.16;99750.68;104840;1273;73239;-75
2022/08/05 05:12:53;;;;;;;10.90;4.40;;;;;;;22.41;50.87;99760.80;105061;1273;65987;-75
2022/08/05 05:15:43;;;;;;;13.40;4.30;;;;;;;22.57;50.24;99757.76;104909;1273;73551;-75
2022/08/05 05:18:48;;;;;;;9.40;3.90;;;;;;;23.01;49.46;99754.52;105215;1273;59660;-75
2022/08/05 05:21:56;;;;;;;9.40;4.10;;;;;;;24.02;47.22;99747.80;105205;1273;60359;-77
2022/08/05 05:24:50;;;;;;;8.80;4.00;;;;;;;25.26;45.06;99742.34;104124;1273;1295610;-75
2022/08/05 05:27:46;;;;;;;8.50;3.80;;;;;;;26.58;42.47;99742.08;105202;1273;67828;-72
2022/08/05 05:30:40;;;;;;;10.20;3.90;;;;;;;27.85;38.95;99744.73;104981;1273;72991;-75
2022/08/05 05:33:29;;;;;;;9.50;3.70;;;;;;;28.82;36.57;99738.17;105177;1273;59863;-76
2022/08/05 05:36:37;;;;;;;8.40;3.50;;;;;;;29.56;34.77;99739.48;105142;1273;61671;-77
2022/08/05 05:39:25;;;;;;;9.70;3.20;;;;;;;30.19;33.79;99738.60;104953;1273;73435;-72
2022/08/05 05:42:22;;;;;;;11.60;3.50;;;;;;;30.91;32.48;99736.64;105796;1272;67812;-75
2022/08/05 05:45:11;;;;;;;9.00;2.90;;;;;;;31.74;31.84;99735.99;105250;1273;71745;-77
2022/08/05 05:48:07;;;;;;;9.60;3.20;;;;;;;32.38;29.84;99733.49;105283;1273;59508;-75
2022/08/05 05:50:55;;;;;;;9.80;3.10;;;;;;;32.67;28.86;99735.48;104972;1273;60402;-78
2022/08/05 05:53:43;;;;;;;6.60;2.80;;;;;;;32.79;28.88;99735.05;104915;1273;70823;-74
2022/08/05 05:56:45;;;;;;;9.90;3.00;;;;;;;33.18;28.38;99738.30;105467;1273;66976;-75
2022/08/05 05:59:33;;;;;;;8.40;3.00;;;;;;;33.64;27.83;99736.68;104931;1273;72843;-78
2022/08/05 06:02:27;;;;;;;9.00;2.90;;;;;;;34.08;26.86;99735.41;105197;1273;60408;-77
2022/08/05 06:05:24;;;;;;;8.40;2.80;;;;;;;34.54;26.51;99729.85;105302;1273;60472;-76
2022/08/05 06:08:13;;;;;;;8.60;2.90;;;;;;;34.88;25.56;99735.41;105096;1273;73041;-77
2022/08/05 06:11:18;;;;;;;10.90;2.90;;;;;;;34.63;25.57;99736.59;105203;1273;66677;-75
2022/08/05 06:14:06;;;;;;;7.50;2.70;;;;;;;34.58;25.56;99741.54;105038;1273;72867;-75
2022/08/05 06:16:55;;;;;;;10.40;2.80;;;;;;;34.77;25.63;99742.45;104972;1274;59759;-80
2022/08/05 06:19:44;;;;;;;13.60;2.80;;;;;;;34.73;25.37;99742.87;104905;1273;62168;-79
2022/08/05 06:22:46;;;;;;;9.50;2.70;;;;;;;35.12;24.96;99742.23;104828;1274;71828;-79
2022/08/05 06:25:34;;;;;;;8.90;2.90;;;;;;;35.56;24.43;99745.39;104966;1273;67968;-79
2022/08/05 06:28:42;;;;;;;10.70;2.80;;;;;;;35.91;23.82;99741.58;105219;1271;72916;-77
2022/08/05 06:31:33;;;;;;;13.80;3.00;;;;;;;35.98;23.66;99732.13;104959;1273;60000;-79
2022/08/05 06:34:21;;;;;;;9.10;2.70;;;;;;;36.11;23.52;99729.52;105154;1274;60482;-80
2022/08/05 06:37:15;;;;;;;7.50;2.50;;;;;;;36.15;23.21;99726.36;104834;1273;73162;-78
2022/08/05 06:40:23;;;;;;;6.70;2.30;;;;;;;36.17;23.23;99719.68;105024;1273;68020;-78
2022/08/05 06:43:14;;;;;;;9.00;2.50;;;;;;;36.37;22.68;99722.84;104989;1273;70945;-78
2022/08/05 06:46:23;;;;;;;8.50;2.70;;;;;;;36.13;23.32;99716.54;105061;1274;59678;-77
2022/08/05 06:49:17;;;;;;;7.40;2.40;;;;;;;36.00;23.21;99711.30;105176;1273;60545;-77
2022/08/05 06:52:07;;;;;;;7.20;2.40;;;;;;;35.94;23.01;99716.02;105081;1274;73298;-79
2022/08/05 06:55:16;;;;;;;7.60;2.30;;;;;;;36.18;22.90;99716.41;104860;1273;67168;-80
2022/08/05 06:58:05;;;;;;;6.40;2.10;;;;;;;36.64;22.50;99712.52;105107;1273;73378;-78
2022/08/05 07:01:13;;;;;;;10.30;2.40;;;;;;;36.94;22.19;99708.55;105084;1273;59842;-78
2022/08/05 07:04:07;;;;;;;7.90;2.50;;;;;;;37.18;21.62;99697.36;105203;1274;59610;-76
2022/08/05 07:06:55;;;;;;;9.60;2.40;;;;;;;37.79;21.24;99705.98;105391;1273;74249;-78
2022/08/05 07:09:44;;;;;;;8.50;2.30;;;;;;;38.26;20.76;99702.23;105209;1274;68098;-77
2022/08/05 07:18:59;;;;;;;8.90;2.70;;;;;;;38.31;21.11;99699.15;106226;1273;59728;-81
2022/08/05 07:21:49;;;;;;;8.00;2.60;;;;;;;38.55;20.82;99689.64;106063;1273;73765;-80
2022/08/05 07:24:48;;;;;;;7.10;2.30;;;;;;;38.74;20.85;99691.69;105821;1273;68619;-79
2022/08/05 07:27:40;;;;;;;10.30;2.90;;;;;;;38.75;20.88;99691.55;104871;1273;71312;-77
2022/08/05 07:30:48;;;;;;;7.40;2.70;;;;;;;38.35;21.18;99691.45;105752;1274;59942;-78
2022/08/05 07:33:41;;;;;;;9.60;2.60;;;;;;;38.32;21.18;99690.52;105092;1273;59753;-78
2022/08/05 07:36:32;;;;;;;8.80;2.40;;;;;;;38.71;20.97;99685.48;104948;1273;72046;-79
2022/08/05 07:39:20;;;;;;;10.00;2.60;;;;;;;38.68;20.81;99684.45;104967;1273;68088;-79
2022/08/05 07:42:28;;;;;;;15.60;2.90;;;;;;;38.49;20.64;99686.89;104871;1276;72877;-77
2022/08/05 07:45:21;;;;;;;6.80;2.60;;;;;;;38.16;21.22;99684.78;105030;1273;59752;-79
2022/08/05 07:48:30;;;;;;;8.50;2.50;;;;;;;38.31;21.26;99684.50;104961;1273;63222;-80
2022/08/05 07:51:38;;;;;;;8.00;2.80;;;;;;;38.56;20.79;99681.11;105143;1273;73207;-77
2022/08/05 07:54:35;;;;;;;9.80;2.80;;;;;;;37.94;21.06;99693.66;105017;1273;68616;-78
2022/08/05 07:57:35;;;;;;;10.80;3.10;;;;;;;37.65;21.05;99690.35;104948;1273;70899;-71
2022/08/05 08:00:43;;;;;;;8.10;2.50;;;;;;;37.95;21.25;99692.29;105072;1273;59770;-71
2022/08/05 08:03:32;;;;;;;8.70;2.70;;;;;;;37.89;20.91;99694.26;105034;1273;60549;-72
2022/08/05 08:06:32;;;;;;;7.50;2.30;;;;;;;37.90;20.81;99693.25;105154;1273;73212;-68
2022/08/05 08:09:23;;;;;;;7.70;2.60;;;;;;;38.04;20.79;99691.88;104842;1273;68047;-70
2022/08/05 08:12:15;;;;;;;7.30;2.60;;;;;;;38.20;20.76;99683.86;104877;1273;73409;-69
2022/08/05 08:15:24;;;;;;;8.60;2.60;;;;;;;38.37;20.60;99687.81;105224;1273;59749;-70
2022/08/05 08:18:32;;;;;;;8.90;2.70;;;;;;;38.15;20.98;99690.74;105020;1274;61010;-70
2022/08/05 08:21:20;;;;;;;9.90;2.80;;;;;;;37.70;21.01;99696.52;105140;1274;74679;-70
2022/08/05 08:24:11;;;;;;;8.80;2.70;;;;;;;37.49;21.39;99689.69;105188;1273;68039;-73
2022/08/05 08:27:01;;;;;;;10.70;2.70;;;;;;;38.03;21.54;99680.95;105147;1273;73622;-71
2022/08/05 08:29:53;;;;;;;8.20;2.50;;;;;;;38.69;20.54;99677.13;104967;1273;59869;-72
2022/08/05 08:33:08;;;;;;;8.20;2.80;;;;;;;38.90;20.04;99675.92;105231;1274;60637;-70
2022/08/05 08:36:03;;;;;;;10.00;2.80;;;;;;;39.19;19.81;99671.84;104916;1273;74759;-70
2022/08/05 08:39:10;;;;;;;9.30;2.60;;;;;;;38.94;19.46;99672.77;105243;1273;68063;-72
2022/08/05 08:42:04;;;;;;;10.00;2.50;;;;;;;38.94;19.81;99666.72;104786;1274;74695;-74
2022/08/05 08:45:14;;;;;;;7.00;2.50;;;;;;;39.17;19.71;99666.65;104854;1273;59563;-72
2022/08/05 08:48:15;;;;;;;8.10;2.30;;;;;;;38.58;19.68;99676.67;105246;1273;62090;-71
2022/08/05 08:51:30;;;;;;;8.80;2.60;;;;;;;38.33;19.74;99678.16;105132;1273;74836;-72
2022/08/05 08:54:38;;;;;;;8.60;2.50;;;;;;;38.49;19.79;99672.98;105212;1273;68620;-71
2022/08/05 08:57:29;;;;;;;9.70;2.30;;;;;;;38.20;19.87;99680.80;105017;1273;72965;-72
2022/08/05 09:00:39;;;;;;;8.70;2.70;;;;;;;37.94;19.78;99682.05;105226;1273;60554;-72
2022/08/05 09:03:28;;;;;;;10.70;2.90;;;;;;;37.70;20.13;99673.04;104879;1274;59779;-71
2022/08/05 09:06:32;;;;;;;12.70;2.70;;;;;;;37.85;20.47;99664.63;104905;1273;74752;-70
2022/08/05 09:09:23;;;;;;;7.80;2.50;;;;;;;37.38;20.88;99666.86;105041;1273;67462;-71
2022/08/05 09:12:12;;;;;;;8.10;2.50;;;;;;;37.47;20.76;99664.53;104833;1273;74464;-70
2022/08/05 09:15:17;;;;;;;7.20;2.40;;;;;;;37.79;20.29;99665.69;104888;1274;59888;-71
2022/08/05 09:18:08;;;;;;;8.30;2.50;;;;;;;38.14;19.80;99655.70;104877;1274;60581;-70
2022/08/05 09:20:59;;;;;;;8.10;2.30;;;;;;;38.46;19.34;99660.02;105034;1275;73203;-72
2022/08/05 09:24:03;;;;;;;8.70;2.40;;;;;;;38.57;19.34;99653.08;105006;1275;67968;-72
2022/08/05 09:26:57;;;;;;;6.80;2.10;;;;;;;38.82;18.66;99657.79;104982;1275;74402;-72
2022/08/05 09:29:45;;;;;;;8.10;2.40;;;;;;;38.91;18.51;99655.23;104697;1275;59724;-73
2022/08/05 09:32:39;;;;;;;8.60;2.10;;;;;;;38.91;18.49;99650.44;104857;1276;60908;-75
2022/08/05 09:35:54;;;;;;;8.80;2.00;;;;;;;38.57;18.73;99649.80;104869;1276;73749;-74
2022/08/05 09:39:07;;;;;;;7.00;2.10;;;;;;;38.86;18.73;99640.38;105081;1274;67219;-72
2022/08/05 09:42:09;;;;;;;9.40;2.20;;;;;;;39.54;18.23;99644.58;104856;1273;74359;-72
2022/08/05 09:45:11;;;;;;;7.80;2.30;;;;;;;39.27;18.16;99640.12;104891;1273;60074;-72
2022/08/05 09:48:31;;;;;;;8.90;2.20;;;;;;;38.84;18.30;99629.55;105101;1273;60645;-75
2022/08/05 09:51:36;;;;;;;6.50;2.20;;;;;;;38.93;17.88;99630.52;105092;1273;72045;-74
2022/08/05 09:54:30;;;;;;;12.90;2.20;;;;;;;38.76;17.66;99628.02;105088;1273;69148;-73
2022/08/05 09:57:44;;;;;;;17.20;2.70;;;;;;;38.61;17.82;99627.01;104909;1273;73411;-73
2022/08/05 10:00:33;;;;;;;17.50;3.30;;;;;;;38.59;18.07;99634.63;105134;1273;59654;-73
2022/08/05 10:03:22;;;;;;;7.80;2.30;;;;;;;38.76;18.08;99621.01;104957;1273;60299;-72
2022/08/05 10:06:32;;;;;;;8.10;2.30;;;;;;;39.22;17.77;99613.42;104894;1273;71973;-73
2022/08/05 10:09:21;;;;;;;6.80;2.00;;;;;;;39.53;17.46;99615.15;104783;1273;66949;-73
2022/08/05 10:12:16;;;;;;;6.90;2.10;;;;;;;39.84;17.10;99607.90;104859;1273;73011;-74
2022/08/05 10:15:23;;;;;;;6.20;2.00;;;;;;;40.29;16.90;99614.81;105038;1273;59666;-73
2022/08/05 10:18:21;;;;;;;8.50;2.20;;;;;;;40.58;17.06;99606.27;105114;1275;61158;-75
2022/08/05 10:21:10;;;;;;;11.60;2.60;;;;;;;40.83;16.70;99603.16;104812;1274;71701;-72
2022/08/05 10:24:03;;;;;;;8.50;2.40;;;;;;;40.99;16.57;99608.86;104873;1274;68074;-74
2022/08/05 10:26:59;;;;;;;8.20;2.40;;;;;;;41.09;16.59;99600.09;104818;1274;73955;-76
2022/08/05 10:29:48;;;;;;;6.00;2.10;;;;;;;41.27;16.79;99592.63;104870;1274;59547;-74
2022/08/05 10:33:00;;;;;;;11.70;2.40;;;;;;;41.72;16.19;99588.16;105073;1273;59599;-76
2022/08/05 10:35:51;;;;;;;7.10;2.10;;;;;;;41.43;16.18;99595.88;104833;1276;73208;-73
2022/08/05 10:38:51;;;;;;;7.20;2.40;;;;;;;41.13;16.42;99580.34;104845;1273;68111;-75
2022/08/05 10:42:09;;;;;;;10.80;2.20;;;;;;;40.73;16.68;99578.86;104874;1273;72788;-73
2022/08/05 10:44:59;;;;;;;15.10;2.90;;;;;;;39.99;17.12;99589.27;105064;1273;59746;-71
2022/08/05 10:47:48;;;;;;;8.10;2.30;;;;;;;39.45;17.59;99578.17;104885;1274;60417;-75
2022/08/05 10:50:59;;;;;;;7.60;1.80;;;;;;;39.46;17.68;99578.29;104828;1273;73357;-73
2022/08/05 10:53:49;;;;;;;7.80;2.10;;;;;;;39.19;17.94;99574.94;104854;1273;66985;-76
2022/08/05 10:56:50;;;;;;;8.60;2.20;;;;;;;39.37;17.74;99572.83;104853;1273;73317;-72
2022/08/05 10:59:39;;;;;;;8.80;2.20;;;;;;;39.69;17.56;99570.71;105140;1274;59943;-72
2022/08/05 11:03:14;;;;;;;12.00;2.50;;;;;;;39.82;17.53;99573.38;104800;1274;59811;-75
2022/08/05 11:06:15;;;;;;;8.10;2.20;;;;;;;40.38;17.00;99555.98;105036;1273;72621;-72
2022/08/05 11:09:22;;;;;;;8.60;2.20;;;;;;;41.05;16.69;99557.23;104846;1275;68042;-74
2022/08/05 11:12:35;;;;;;;7.00;2.10;;;;;;;41.13;16.51;99557.20;104846;1274;72869;-74
2022/08/05 11:15:32;;;;;;;7.70;2.10;;;;;;;40.91;16.46;99548.02;104910;1274;59742;-72
2022/08/05 11:18:40;;;;;;;6.70;2.30;;;;;;;40.87;16.77;99540.05;105157;1274;60453;-72
2022/08/05 11:21:33;;;;;;;9.60;2.30;;;;;;;40.69;16.77;99539.31;104753;1275;73433;-74
2022/08/05 11:24:36;;;;;;;9.10;2.50;;;;;;;39.67;17.56;99548.16;104995;1274;68052;-74
2022/08/05 11:27:37;;;;;;;8.20;2.30;;;;;;;38.98;18.16;99546.29;104914;1274;72761;-73
2022/08/05 11:30:57;;;;;;;9.20;2.20;;;;;;;38.61;18.53;99534.35;104815;1274;59862;-72
2022/08/05 11:33:44;;;;;;;9.80;2.60;;;;;;;38.51;18.70;99534.55;105182;1274;61107;-72
2022/08/05 11:36:46;;;;;;;7.10;2.10;;;;;;;38.33;18.74;99531.98;105126;1274;73272;-73
2022/08/05 11:39:52;;;;;;;8.50;2.50;;;;;;;38.10;19.00;99524.20;105040;1272;68485;-71
2022/08/05 11:42:50;;;;;;;6.90;2.50;;;;;;;37.90;19.34;99525.09;104812;1275;75082;-71
2022/08/05 11:45:47;;;;;;;7.80;2.30;;;;;;;37.66;19.38;99523.83;104998;1273;60139;-75
2022/08/05 11:48:57;;;;;;;6.60;2.20;;;;;;;36.88;19.89;99526.85;105196;1274;60321;-70
2022/08/05 11:51:52;;;;;;;9.90;2.70;;;;;;;36.26;21.01;99514.73;105256;1274;73275;-72
2022/08/05 11:54:41;;;;;;;12.20;2.70;;;;;;;35.86;21.36;99511.97;105452;1274;67178;-73
2022/08/05 11:57:45;;;;;;;8.10;2.60;;;;;;;35.20;22.23;99513.46;105603;1274;72460;-70
2022/08/05 12:01:02;;;;;;;10.10;2.60;;;;;;;34.70;22.97;99524.03;105334;1274;59771;-70
2022/08/05 12:03:56;;;;;;;9.90;3.20;;;;;;;34.25;23.41;99517.83;105366;1274;59526;-72
2022/08/05 12:06:44;;;;;;;6.80;2.60;;;;;;;33.94;23.90;99517.27;104987;1274;74647;-70
2022/08/05 12:09:39;;;;;;;9.70;2.80;;;;;;;33.60;24.15;99502.85;105374;1274;67765;-73
2022/08/05 12:12:40;;;;;;;8.60;2.70;;;;;;;33.38;24.63;99511.66;105264;1274;70283;-71
2022/08/05 12:15:46;;;;;;;7.00;3.10;;;;;;;33.13;25.15;99520.63;105201;1274;59571;-70
2022/08/05 12:18:38;;;;;;;7.20;3.10;;;;;;;32.89;25.57;99505.35;104925;1274;59947;-72
2022/08/05 12:21:32;;;;;;;8.90;2.80;;;;;;;32.67;26.00;99509.32;105074;1274;73062;-72
2022/08/05 12:24:25;;;;;;;9.40;2.80;;;;;;;32.51;26.33;99501.58;105171;1275;68063;-72
2022/08/05 12:27:22;;;;;;;8.70;2.60;;;;;;;32.50;26.09;99506.87;105544;1274;70605;-71
2022/08/05 12:30:12;;;;;;;9.40;3.00;;;;;;;32.34;26.30;99497.74;105210;1274;59780;-71
2022/08/05 12:33:02;;;;;;;11.20;2.60;;;;;;;32.37;26.54;99489.92;105167;1274;59632;-73
2022/08/05 12:36:11;;;;;;;8.30;2.50;;;;;;;32.38;26.61;99493.11;105279;1274;73635;-75
2022/08/05 12:39:00;;;;;;;6.70;2.80;;;;;;;32.42;26.20;99488.43;105150;1274;67915;-73
2022/08/05 12:42:01;;;;;;;9.60;2.80;;;;;;;32.55;25.98;99489.39;104893;1274;73136;-75
2022/08/05 12:44:49;;;;;;;6.70;2.60;;;;;;;32.62;25.77;99494.55;105224;1274;59743;-76
2022/08/05 12:47:37;;;;;;;6.70;2.90;;;;;;;32.63;26.23;99492.51;105357;1274;60468;-76
2022/08/05 12:51:13;;;;;;;8.30;2.80;;;;;;;32.61;26.02;99496.15;104960;1273;73015;-75
2022/08/05 12:54:24;;;;;;;7.50;2.70;;;;;;;32.69;25.63;99496.09;104981;1274;66826;-74
2022/08/05 12:57:19;;;;;;;9.50;2.90;;;;;;;32.71;25.57;99490.32;104902;1274;71945;-74
2022/08/05 13:00:24;;;;;;;7.80;3.00;;;;;;;32.67;25.49;99490.73;104988;1274;59803;-75
2022/08/05 13:03:37;;;;;;;7.20;2.80;;;;;;;32.81;25.72;99489.34;105081;1274;59640;-76
2022/08/05 13:06:35;;;;;;;9.80;2.50;;;;;;;32.91;25.30;99485.06;105202;1274;73213;-75
2022/08/05 13:09:25;;;;;;;6.20;2.30;;;;;;;32.85;25.48;99484.05;104977;1273;67826;-75
2022/08/05 13:12:17;;;;;;;8.50;2.60;;;;;;;32.81;25.76;99474.25;104896;1273;71686;-76
2022/08/05 13:15:09;;;;;;;8.80;2.50;;;;;;;32.79;25.60;99475.24;105130;1274;59694;-74
2022/08/05 13:18:05;;;;;;;7.50;2.60;;;;;;;32.76;25.54;99477.68;105019;1274;60371;-76
2022/08/05 13:20:54;;;;;;;7.10;2.60;;;;;;;32.81;25.42;99467.24;104929;1274;72028;-76
2022/08/05 13:23:42;;;;;;;7.10;2.70;;;;;;;32.91;25.62;99459.49;105031;1273;68131;-76
2022/08/05 13:26:39;;;;;;;7.40;3.00;;;;;;;32.87;25.33;99465.40;104969;1274;71011;-76
2022/08/05 13:29:27;;;;;;;7.40;2.80;;;;;;;32.76;25.67;99466.40;105082;1274;60274;-74
2022/08/05 13:32:25;;;;;;;6.50;2.50;;;;;;;32.72;25.97;99457.48;105164;1274;61016;-73
2022/08/05 13:35:22;;;;;;;7.70;2.30;;;;;;;32.85;25.50;99461.41;104999;1274;72965;-73
2022/08/05 13:38:29;;;;;;;9.70;2.70;;;;;;;32.93;25.12;99454.26;104996;1274;68566;-75
2022/08/05 13:41:25;;;;;;;8.50;2.50;;;;;;;32.91;25.17;99455.70;104751;1275;72430;-72
2022/08/05 13:44:24;;;;;;;7.10;2.60;;;;;;;32.88;25.01;99461.33;105214;1274;59868;-74
2022/08/05 13:47:13;;;;;;;9.10;3.00;;;;;;;32.91;24.89;99448.48;104876;1273;61345;-73
2022/08/05 13:50:21;;;;;;;10.80;2.90;;;;;;;33.06;25.07;99448.79;104877;1273;73540;-74